createdAt,value
2018-12-02T00:00:07.932Z,0.00
2018-12-02T00:01:07.878Z,0.00
2018-12-02T00:02:07.857Z,0.00
2018-12-02T00:03:07.802Z,0.00
2018-12-02T00:04:07.759Z,0.00
2018-12-02T00:05:07.745Z,0.00
2018-12-02T00:06:07.677Z,0.00
2018-12-02T00:07:07.650Z,0.00
2018-12-02T00:08:07.584Z,0.00
2018-12-02T00:09:07.543Z,0.00
2018-12-02T00:10:07.497Z,0.00
2018-12-02T00:11:07.465Z,0.00
2018-12-02T00:12:07.423Z,0.00
2018-12-02T00:13:07.404Z,0.00
2018-12-02T00:14:07.333Z,0.00
2018-12-02T00:15:07.294Z,0.00
2018-12-02T00:16:07.247Z,0.00
2018-12-02T00:17:07.214Z,0.00
2018-12-02T00:18:07.198Z,0.00
2018-12-02T00:19:07.122Z,0.00
2018-12-02T00:20:07.081Z,0.00
2018-12-02T00:21:07.037Z,0.00
2018-12-02T00:22:06.988Z,0.00
2018-12-02T00:23:06.971Z,0.00
2018-12-02T00:24:06.943Z,0.00
2018-12-02T00:25:06.894Z,0.00
2018-12-02T00:26:06.865Z,0.00
2018-12-02T00:27:06.795Z,0.00
2018-12-02T00:28:06.750Z,0.00
2018-12-02T00:29:06.715Z,0.00
2018-12-02T00:30:06.660Z,0.00
2018-12-02T00:31:06.663Z,0.00
2018-12-02T00:32:06.655Z,0.00
2018-12-02T00:33:06.538Z,0.00
2018-12-02T00:34:06.504Z,0.00
2018-12-02T00:35:06.482Z,0.00
2018-12-02T00:36:06.500Z,0.00
2018-12-02T00:37:06.405Z,0.00
2018-12-02T00:38:06.323Z,0.00
2018-12-02T00:39:06.282Z,0.00
2018-12-02T00:40:06.236Z,0.00
2018-12-02T00:41:06.208Z,0.00
2018-12-02T00:42:06.176Z,0.00
2018-12-02T00:43:06.113Z,0.00
2018-12-02T00:44:06.077Z,0.00
2018-12-02T00:45:06.085Z,0.00
2018-12-02T00:46:06.016Z,0.00
2018-12-02T00:47:05.967Z,0.00
2018-12-02T00:48:05.892Z,0.00
2018-12-02T00:49:05.871Z,0.00
2018-12-02T00:50:05.860Z,0.00
2018-12-02T00:51:05.782Z,0.00
2018-12-02T00:52:05.729Z,0.00
2018-12-02T00:53:05.724Z,0.00
2018-12-02T00:54:05.644Z,0.00
2018-12-02T00:55:05.622Z,0.00
2018-12-02T00:56:05.571Z,0.00
2018-12-02T00:57:05.533Z,0.00
2018-12-02T00:58:05.489Z,0.00
2018-12-02T00:59:05.463Z,0.00
2018-12-02T01:00:05.419Z,0.00
2018-12-02T01:01:05.360Z,0.00
2018-12-02T01:02:05.304Z,0.00
2018-12-02T01:03:05.304Z,0.00
2018-12-02T01:04:05.230Z,0.00
2018-12-02T01:05:05.181Z,0.00
2018-12-02T01:06:05.146Z,0.00
2018-12-02T01:07:05.117Z,0.00
2018-12-02T01:08:05.067Z,0.00
2018-12-02T01:09:05.045Z,0.00
2018-12-02T01:10:04.984Z,0.00
2018-12-02T01:11:04.924Z,0.00
2018-12-02T01:12:04.915Z,0.00
2018-12-02T01:13:04.885Z,0.00
2018-12-02T01:14:04.799Z,0.00
2018-12-02T01:15:04.775Z,0.00
2018-12-02T01:16:04.734Z,0.00
2018-12-02T01:17:04.685Z,0.00
2018-12-02T01:18:04.692Z,0.00
2018-12-02T01:19:04.593Z,0.00
2018-12-02T01:20:04.599Z,0.00
2018-12-02T01:21:04.512Z,0.00
2018-12-02T01:22:04.471Z,0.00
2018-12-02T01:23:04.422Z,0.00
2018-12-02T01:24:04.379Z,0.00
2018-12-02T01:25:04.347Z,0.00
2018-12-02T01:26:04.343Z,0.00
2018-12-02T01:27:04.254Z,0.00
2018-12-02T01:28:04.224Z,0.00
2018-12-02T01:29:04.178Z,0.00
2018-12-02T01:30:04.161Z,0.00
2018-12-02T01:31:04.085Z,0.00
2018-12-02T01:32:04.039Z,0.00
2018-12-02T01:33:03.996Z,0.00
2018-12-02T01:34:03.957Z,0.00
2018-12-02T01:35:03.952Z,0.00
2018-12-02T01:36:03.908Z,0.00
2018-12-02T01:37:03.839Z,0.00
2018-12-02T01:38:03.796Z,0.00
2018-12-02T01:39:03.756Z,0.00
2018-12-02T01:40:03.726Z,0.00
2018-12-02T01:41:03.673Z,0.00
2018-12-02T01:42:03.654Z,0.00
2018-12-02T01:43:03.578Z,0.00
2018-12-02T01:44:03.534Z,0.00
2018-12-02T01:45:03.496Z,0.00
2018-12-02T01:46:03.473Z,0.00
2018-12-02T01:47:03.415Z,0.00
2018-12-02T01:48:03.371Z,0.00
2018-12-02T01:49:03.327Z,0.00
2018-12-02T01:50:03.309Z,0.00
2018-12-02T01:51:03.232Z,0.00
2018-12-02T01:52:03.230Z,0.00
2018-12-02T01:53:03.164Z,0.00
2018-12-02T01:54:03.113Z,0.00
2018-12-02T01:55:03.074Z,0.00
2018-12-02T01:56:03.023Z,0.00
2018-12-02T01:57:02.988Z,0.00
2018-12-02T01:58:02.972Z,0.00
2018-12-02T01:59:02.911Z,0.00
2018-12-02T02:00:02.869Z,0.00
2018-12-02T02:01:02.850Z,0.00
2018-12-02T02:02:02.780Z,0.00
2018-12-02T02:03:02.731Z,0.00
2018-12-02T02:04:02.718Z,0.00
2018-12-02T02:05:02.646Z,0.00
2018-12-02T02:06:02.634Z,0.00
2018-12-02T02:07:02.571Z,0.00
2018-12-02T02:08:02.524Z,0.00
2018-12-02T02:09:02.477Z,0.00
2018-12-02T02:10:02.433Z,0.00
2018-12-02T02:11:02.404Z,0.00
2018-12-02T02:12:02.376Z,0.00
2018-12-02T02:13:02.315Z,0.00
2018-12-02T02:14:02.273Z,0.00
2018-12-02T02:15:02.225Z,0.00
2018-12-02T02:16:02.187Z,0.00
2018-12-02T02:17:02.164Z,0.00
2018-12-02T02:18:02.097Z,0.00
2018-12-02T02:19:02.057Z,0.00
2018-12-02T02:20:02.017Z,0.00
2018-12-02T02:21:01.975Z,0.00
2018-12-02T02:22:01.954Z,0.00
2018-12-02T02:23:01.883Z,0.00
2018-12-02T02:24:01.869Z,0.00
2018-12-02T02:25:01.815Z,0.00
2018-12-02T02:26:01.759Z,0.00
2018-12-02T02:27:01.737Z,0.00
2018-12-02T02:28:01.670Z,0.00
2018-12-02T02:29:01.627Z,0.00
2018-12-02T02:30:01.593Z,0.00
2018-12-02T02:31:01.552Z,0.00
2018-12-02T02:32:01.513Z,0.00
2018-12-02T02:33:01.485Z,0.00
2018-12-02T02:34:01.450Z,0.00
2018-12-02T02:35:01.371Z,0.00
2018-12-02T02:36:01.332Z,0.00
2018-12-02T02:37:01.284Z,0.00
2018-12-02T02:38:01.239Z,0.00
2018-12-02T02:39:01.227Z,0.00
2018-12-02T02:40:01.171Z,0.00
2018-12-02T02:41:01.121Z,0.00
2018-12-02T02:42:01.073Z,0.00
2018-12-02T02:43:01.059Z,0.00
2018-12-02T02:44:00.995Z,0.00
2018-12-02T02:45:00.954Z,0.00
2018-12-02T02:46:00.919Z,0.00
2018-12-02T02:47:00.868Z,0.00
2018-12-02T02:48:00.838Z,0.00
2018-12-02T02:49:00.774Z,0.00
2018-12-02T02:50:00.726Z,0.00
2018-12-02T02:51:00.703Z,0.00
2018-12-02T02:52:00.648Z,0.00
2018-12-02T02:53:00.641Z,0.00
2018-12-02T02:54:00.589Z,0.00
2018-12-02T02:55:00.524Z,0.00
2018-12-02T02:56:00.475Z,0.00
2018-12-02T02:57:00.438Z,0.00
2018-12-02T02:58:00.393Z,0.00
2018-12-02T02:59:00.372Z,0.00
2018-12-02T03:00:00.299Z,0.00
2018-12-02T03:01:00.257Z,0.00
2018-12-02T03:02:00.214Z,0.00
2018-12-02T03:03:00.178Z,0.00
2018-12-02T03:04:00.182Z,0.00
2018-12-02T03:05:00.098Z,0.00
2018-12-02T03:06:00.047Z,0.00
2018-12-02T03:07:00.004Z,0.00
2018-12-02T03:07:59.962Z,0.00
2018-12-02T03:08:59.917Z,0.00
2018-12-02T03:09:59.896Z,0.00
2018-12-02T03:10:59.860Z,0.00
2018-12-02T03:11:59.793Z,0.00
2018-12-02T03:12:59.740Z,0.00
2018-12-02T03:13:59.698Z,0.00
2018-12-02T03:14:59.663Z,0.00
2018-12-02T03:15:59.652Z,0.00
2018-12-02T03:16:59.654Z,0.00
2018-12-02T03:17:59.539Z,0.00
2018-12-02T03:18:59.490Z,0.00
2018-12-02T03:19:59.445Z,0.00
2018-12-02T03:20:59.423Z,0.00
2018-12-02T03:21:59.358Z,0.00
2018-12-02T03:22:59.322Z,0.00
2018-12-02T03:24:08.680Z,0.00
2018-12-02T03:24:59.225Z,0.00
2018-12-02T03:25:59.211Z,0.00
2018-12-02T03:26:59.147Z,0.00
2018-12-02T03:27:59.106Z,0.00
2018-12-02T03:28:59.056Z,0.00
2018-12-02T03:29:59.009Z,0.00
2018-12-02T03:30:58.967Z,0.00
2018-12-02T03:31:58.956Z,0.00
2018-12-02T03:32:58.887Z,0.00
2018-12-02T03:33:58.846Z,0.00
2018-12-02T03:34:58.802Z,0.00
2018-12-02T03:35:58.759Z,0.00
2018-12-02T03:36:58.711Z,0.00
2018-12-02T03:37:58.694Z,0.00
2018-12-02T03:38:58.622Z,0.00
2018-12-02T03:39:58.579Z,0.00
2018-12-02T03:40:58.545Z,0.00
2018-12-02T03:41:58.523Z,0.00
2018-12-02T03:42:58.454Z,0.00
2018-12-02T03:43:58.430Z,0.00
2018-12-02T03:44:58.374Z,0.00
2018-12-02T03:45:58.334Z,0.00
2018-12-02T03:46:58.293Z,0.00
2018-12-02T03:47:58.247Z,0.00
2018-12-02T03:48:58.225Z,0.00
2018-12-02T03:49:58.149Z,0.00
2018-12-02T03:50:58.108Z,0.00
2018-12-02T03:51:58.068Z,0.00
2018-12-02T03:52:58.031Z,0.00
2018-12-02T03:53:57.987Z,0.00
2018-12-02T03:54:57.969Z,0.00
2018-12-02T03:55:57.904Z,0.00
2018-12-02T03:56:57.852Z,0.00
2018-12-02T03:57:57.810Z,0.00
2018-12-02T03:58:57.774Z,0.00
2018-12-02T03:59:57.753Z,0.00
2018-12-02T04:00:57.679Z,0.00
2018-12-02T04:01:57.636Z,0.00
2018-12-02T04:02:57.594Z,0.00
2018-12-02T04:03:57.553Z,0.00
2018-12-02T04:04:57.541Z,0.00
2018-12-02T04:05:57.473Z,0.00
2018-12-02T04:06:57.435Z,0.00
2018-12-02T04:07:57.389Z,0.00
2018-12-02T04:08:57.339Z,0.00
2018-12-02T04:09:57.320Z,0.00
2018-12-02T04:10:57.254Z,0.00
2018-12-02T04:11:57.208Z,0.00
2018-12-02T04:12:57.174Z,0.00
2018-12-02T04:13:57.129Z,0.00
2018-12-02T04:14:57.083Z,0.00
2018-12-02T04:15:57.062Z,0.00
2018-12-02T04:16:56.999Z,0.00
2018-12-02T04:17:56.958Z,0.00
2018-12-02T04:18:56.912Z,0.00
2018-12-02T04:19:56.882Z,0.00
2018-12-02T04:20:56.845Z,0.00
2018-12-02T04:21:56.778Z,0.00
2018-12-02T04:22:56.737Z,0.00
2018-12-02T04:23:56.698Z,0.00
2018-12-02T04:24:56.656Z,0.00
2018-12-02T04:25:56.643Z,0.00
2018-12-02T04:26:56.573Z,0.00
2018-12-02T04:27:56.526Z,0.00
2018-12-02T04:28:56.479Z,0.00
2018-12-02T04:29:56.435Z,0.00
2018-12-02T04:30:56.399Z,0.00
2018-12-02T04:31:56.381Z,0.00
2018-12-02T04:32:56.307Z,0.00
2018-12-02T04:33:56.261Z,0.00
2018-12-02T04:34:56.222Z,0.00
2018-12-02T04:35:56.180Z,0.00
2018-12-02T04:36:56.166Z,0.00
2018-12-02T04:37:56.125Z,0.00
2018-12-02T04:38:56.055Z,0.00
2018-12-02T04:39:56.011Z,0.00
2018-12-02T04:40:55.989Z,0.00
2018-12-02T04:41:55.946Z,0.00
2018-12-02T04:42:55.878Z,0.00
2018-12-02T04:43:55.833Z,0.00
2018-12-02T04:44:55.798Z,0.00
2018-12-02T04:45:55.756Z,0.00
2018-12-02T04:46:55.704Z,0.00
2018-12-02T04:47:55.695Z,0.00
2018-12-02T04:48:55.626Z,0.00
2018-12-02T04:49:55.582Z,0.00
2018-12-02T04:50:55.542Z,0.00
2018-12-02T04:51:55.497Z,0.00
2018-12-02T04:52:55.447Z,0.00
2018-12-02T04:53:55.426Z,0.00
2018-12-02T04:54:55.370Z,0.00
2018-12-02T04:55:55.350Z,0.00
2018-12-02T04:56:55.277Z,0.00
2018-12-02T04:57:55.233Z,0.00
2018-12-02T04:58:55.214Z,0.00
2018-12-02T04:59:55.149Z,0.00
2018-12-02T05:00:55.113Z,0.00
2018-12-02T05:01:55.094Z,0.00
2018-12-02T05:02:55.017Z,0.00
2018-12-02T05:03:54.976Z,0.00
2018-12-02T05:04:54.968Z,0.00
2018-12-02T05:05:54.901Z,0.00
2018-12-02T05:06:54.855Z,0.00
2018-12-02T05:07:54.811Z,0.00
2018-12-02T05:08:54.764Z,0.00
2018-12-02T05:09:54.720Z,0.00
2018-12-02T05:10:54.702Z,0.00
2018-12-02T05:11:54.633Z,0.00
2018-12-02T05:12:54.596Z,0.00
2018-12-02T05:13:54.557Z,0.00
2018-12-02T05:14:54.510Z,0.00
2018-12-02T05:15:54.471Z,0.00
2018-12-02T05:16:54.442Z,0.00
2018-12-02T05:17:54.377Z,0.00
2018-12-02T05:18:54.339Z,0.00
2018-12-02T05:19:54.297Z,0.00
2018-12-02T05:20:54.246Z,0.00
2018-12-02T05:21:54.225Z,0.00
2018-12-02T05:22:54.169Z,0.00
2018-12-02T05:23:54.123Z,0.00
2018-12-02T05:24:54.085Z,0.00
2018-12-02T05:25:54.039Z,0.00
2018-12-02T05:26:54.018Z,0.00
2018-12-02T05:27:53.957Z,0.00
2018-12-02T05:28:53.903Z,0.00
2018-12-02T05:29:53.861Z,0.00
2018-12-02T05:30:53.816Z,0.00
2018-12-02T05:31:53.796Z,0.00
2018-12-02T05:32:53.774Z,0.00
2018-12-02T05:33:53.694Z,0.00
2018-12-02T05:34:53.649Z,0.00
2018-12-02T05:35:53.608Z,0.00
2018-12-02T05:36:53.568Z,0.00
2018-12-02T05:37:53.525Z,0.00
2018-12-02T05:38:53.504Z,0.00
2018-12-02T05:39:53.437Z,0.00
2018-12-02T05:40:53.391Z,0.00
2018-12-02T05:41:53.348Z,0.00
2018-12-02T05:42:53.304Z,0.00
2018-12-02T05:43:53.285Z,0.00
2018-12-02T05:44:53.224Z,0.00
2018-12-02T05:45:53.183Z,0.00
2018-12-02T05:46:53.140Z,0.00
2018-12-02T05:47:53.094Z,0.00
2018-12-02T05:48:53.046Z,0.00
2018-12-02T05:49:53.026Z,0.00
2018-12-02T05:50:52.966Z,0.00
2018-12-02T05:51:52.925Z,0.00
2018-12-02T05:52:52.875Z,0.00
2018-12-02T05:53:52.832Z,0.00
2018-12-02T05:54:52.809Z,0.00
2018-12-02T05:55:52.746Z,0.00
2018-12-02T05:56:52.709Z,0.00
2018-12-02T05:57:52.666Z,0.00
2018-12-02T05:58:52.648Z,0.00
2018-12-02T05:59:52.582Z,0.00
2018-12-02T06:00:52.554Z,0.00
2018-12-02T06:01:52.487Z,0.00
2018-12-02T06:02:52.449Z,0.00
2018-12-02T06:03:52.403Z,0.00
2018-12-02T06:04:52.367Z,0.00
2018-12-02T06:05:52.350Z,0.00
2018-12-02T06:06:52.274Z,0.00
2018-12-02T06:07:52.234Z,0.00
2018-12-02T06:08:52.197Z,0.00
2018-12-02T06:09:52.151Z,0.00
2018-12-02T06:10:52.114Z,0.00
2018-12-02T06:11:52.094Z,0.00
2018-12-02T06:12:52.016Z,0.00
2018-12-02T06:13:52.015Z,0.00
2018-12-02T06:14:51.933Z,0.00
2018-12-02T06:15:51.889Z,0.00
2018-12-02T06:16:51.853Z,0.00
2018-12-02T06:17:51.839Z,0.00
2018-12-02T06:18:51.765Z,0.00
2018-12-02T06:19:51.727Z,0.00
2018-12-02T06:20:51.672Z,0.00
2018-12-02T06:21:51.654Z,0.00
2018-12-02T06:22:51.596Z,0.00
2018-12-02T06:23:51.555Z,0.00
2018-12-02T06:24:51.503Z,0.00
2018-12-02T06:25:51.483Z,0.00
2018-12-02T06:26:51.416Z,0.00
2018-12-02T06:27:51.374Z,0.00
2018-12-02T06:28:51.341Z,0.00
2018-12-02T06:29:51.297Z,0.00
2018-12-02T06:30:51.276Z,0.00
2018-12-02T06:31:51.215Z,0.00
2018-12-02T06:32:51.158Z,0.00
2018-12-02T06:33:51.141Z,0.00
2018-12-02T06:34:51.074Z,0.00
2018-12-02T06:35:51.031Z,0.00
2018-12-02T06:36:50.998Z,0.00
2018-12-02T06:37:50.975Z,0.00
2018-12-02T06:38:50.905Z,0.00
2018-12-02T06:39:50.862Z,0.00
2018-12-02T06:40:50.827Z,0.00
2018-12-02T06:41:50.782Z,0.00
2018-12-02T06:42:50.762Z,0.00
2018-12-02T06:43:50.698Z,0.00
2018-12-02T06:44:50.648Z,0.00
2018-12-02T06:45:50.602Z,0.00
2018-12-02T06:46:50.584Z,0.00
2018-12-02T06:47:50.541Z,4.00
2018-12-02T06:48:50.483Z,4.00
2018-12-02T06:49:50.440Z,4.00
2018-12-02T06:50:50.396Z,0.00
2018-12-02T06:51:50.381Z,4.00
2018-12-02T06:52:50.307Z,4.00
2018-12-02T06:53:50.285Z,8.00
2018-12-02T06:54:50.223Z,8.00
2018-12-02T06:55:50.183Z,12.00
2018-12-02T06:56:50.133Z,8.00
2018-12-02T06:57:50.089Z,12.00
2018-12-02T06:58:50.071Z,12.00
2018-12-02T06:59:50.003Z,12.00
2018-12-02T07:00:49.973Z,12.00
2018-12-02T07:01:49.926Z,16.00
2018-12-02T07:02:49.881Z,20.00
2018-12-02T07:03:49.864Z,24.00
2018-12-02T07:04:49.792Z,24.00
2018-12-02T07:05:49.747Z,28.00
2018-12-02T07:06:49.708Z,28.00
2018-12-02T07:07:49.663Z,28.00
2018-12-02T07:08:49.655Z,28.00
2018-12-02T07:09:49.586Z,32.00
2018-12-02T07:10:49.531Z,36.00
2018-12-02T07:11:49.492Z,40.00
2018-12-02T07:12:49.458Z,44.00
2018-12-02T07:13:49.413Z,40.00
2018-12-02T07:14:49.395Z,36.00
2018-12-02T07:15:49.328Z,32.00
2018-12-02T07:16:49.278Z,32.00
2018-12-02T07:17:49.235Z,32.00
2018-12-02T07:18:49.193Z,40.00
2018-12-02T07:19:49.150Z,40.00
2018-12-02T07:20:49.138Z,44.00
2018-12-02T07:21:49.071Z,48.00
2018-12-02T07:22:49.027Z,48.00
2018-12-02T07:23:48.985Z,48.00
2018-12-02T07:24:48.937Z,48.00
2018-12-02T07:25:48.893Z,56.00
2018-12-02T07:26:48.880Z,60.00
2018-12-02T07:27:48.816Z,68.00
2018-12-02T07:28:48.767Z,88.00
2018-12-02T07:29:48.721Z,96.00
2018-12-02T07:30:48.680Z,120.00
2018-12-02T07:31:48.659Z,140.00
2018-12-02T07:32:48.603Z,152.00
2018-12-02T07:33:48.557Z,164.00
2018-12-02T07:34:48.541Z,156.00
2018-12-02T07:35:48.473Z,184.00
2018-12-02T07:36:48.425Z,172.00
2018-12-02T07:37:57.767Z,168.00
2018-12-02T07:38:48.347Z,168.00
2018-12-02T07:39:48.328Z,168.00
2018-12-02T07:40:48.251Z,164.00
2018-12-02T07:41:48.211Z,164.00
2018-12-02T07:42:48.175Z,164.00
2018-12-02T07:43:48.135Z,180.00
2018-12-02T07:44:48.113Z,228.00
2018-12-02T07:45:48.052Z,232.00
2018-12-02T07:46:48.003Z,236.00
2018-12-02T07:47:47.957Z,232.00
2018-12-02T07:48:47.914Z,200.00
2018-12-02T07:49:47.898Z,200.00
2018-12-02T07:50:47.835Z,216.00
2018-12-02T07:51:47.789Z,236.00
2018-12-02T07:52:47.750Z,296.00
2018-12-02T07:53:47.707Z,332.00
2018-12-02T07:54:47.657Z,348.00
2018-12-02T07:55:47.637Z,368.00
2018-12-02T07:56:47.602Z,392.00
2018-12-02T07:57:47.540Z,464.00
2018-12-02T07:58:47.490Z,512.00
2018-12-02T07:59:47.444Z,568.00
2018-12-02T08:00:47.402Z,580.00
2018-12-02T08:01:47.383Z,644.00
2018-12-02T08:02:47.322Z,704.00
2018-12-02T08:03:47.281Z,688.00
2018-12-02T08:04:47.238Z,748.00
2018-12-02T08:05:47.195Z,736.00
2018-12-02T08:06:47.144Z,704.00
2018-12-02T08:07:47.127Z,688.00
2018-12-02T08:08:47.060Z,684.00
2018-12-02T08:09:47.020Z,720.00
2018-12-02T08:10:46.982Z,768.00
2018-12-02T08:11:46.962Z,796.00
2018-12-02T08:12:46.892Z,852.00
2018-12-02T08:13:46.847Z,764.00
2018-12-02T08:14:46.812Z,796.00
2018-12-02T08:15:46.770Z,772.00
2018-12-02T08:16:46.750Z,784.00
2018-12-02T08:17:46.707Z,760.00
2018-12-02T08:18:46.635Z,772.00
2018-12-02T08:19:46.595Z,764.00
2018-12-02T08:20:46.549Z,764.00
2018-12-02T08:21:46.511Z,760.00
2018-12-02T08:22:51.274Z,720.00
2018-12-02T08:23:46.430Z,700.00
2018-12-02T08:24:46.390Z,684.00
2018-12-02T08:25:46.345Z,752.00
2018-12-02T08:26:46.294Z,852.00
2018-12-02T08:27:46.251Z,916.00
2018-12-02T08:28:46.235Z,972.00
2018-12-02T08:29:46.190Z,952.00
2018-12-02T08:30:46.129Z,920.00
2018-12-02T08:31:46.103Z,880.00
2018-12-02T08:32:46.040Z,828.00
2018-12-02T08:33:46.040Z,844.00
2018-12-02T08:34:45.964Z,856.00
2018-12-02T08:35:45.988Z,872.00
2018-12-02T08:36:45.893Z,944.00
2018-12-02T08:37:45.854Z,1020.00
2018-12-02T08:38:45.862Z,1020.00
2018-12-02T08:39:45.742Z,1024.00
2018-12-02T08:40:45.852Z,908.00
2018-12-02T08:41:45.658Z,856.00
2018-12-02T08:42:45.654Z,816.00
2018-12-02T08:43:45.579Z,776.00
2018-12-02T08:44:45.561Z,816.00
2018-12-02T08:45:45.486Z,876.00
2018-12-02T08:46:45.495Z,932.00
2018-12-02T08:47:45.408Z,992.00
2018-12-02T08:48:45.373Z,960.00
2018-12-02T08:49:45.357Z,952.00
2018-12-02T08:50:45.277Z,1036.00
2018-12-02T08:51:45.233Z,1052.00
2018-12-02T08:52:45.200Z,1052.00
2018-12-02T08:53:45.171Z,1180.00
2018-12-02T08:54:45.114Z,1200.00
2018-12-02T08:55:45.093Z,1376.00
2018-12-02T08:56:45.070Z,1412.00
2018-12-02T08:57:45.011Z,1476.00
2018-12-02T08:58:44.936Z,1568.00
2018-12-02T08:59:44.896Z,1564.00
2018-12-02T09:00:44.887Z,1436.00
2018-12-02T09:01:44.821Z,1384.00
2018-12-02T09:02:44.768Z,1376.00
2018-12-02T09:03:44.756Z,1424.00
2018-12-02T09:04:44.685Z,1416.00
2018-12-02T09:05:44.740Z,1352.00
2018-12-02T09:06:44.668Z,1268.00
2018-12-02T09:07:44.563Z,1236.00
2018-12-02T09:08:44.524Z,1156.00
2018-12-02T09:09:44.478Z,1240.00
2018-12-02T09:10:45.174Z,1320.00
2018-12-02T09:11:44.389Z,1276.00
2018-12-02T09:12:44.364Z,1300.00
2018-12-02T09:13:44.341Z,1264.00
2018-12-02T09:14:44.269Z,1240.00
2018-12-02T09:15:44.261Z,1236.00
2018-12-02T09:16:44.209Z,1092.00
2018-12-02T09:17:44.136Z,928.00
2018-12-02T09:18:44.129Z,896.00
2018-12-02T09:19:44.077Z,860.00
2018-12-02T09:20:44.098Z,852.00
2018-12-02T09:21:44.097Z,904.00
2018-12-02T09:22:43.925Z,920.00
2018-12-02T09:23:47.325Z,916.00
2018-12-02T09:24:43.842Z,1084.00
2018-12-02T09:25:43.799Z,1252.00
2018-12-02T09:26:43.790Z,1200.00
2018-12-02T09:27:43.749Z,1276.00
2018-12-02T09:28:43.782Z,1312.00
2018-12-02T09:29:43.633Z,1252.00
2018-12-02T09:30:43.588Z,1144.00
2018-12-02T09:31:43.549Z,1160.00
2018-12-02T09:32:43.531Z,1284.00
2018-12-02T09:33:43.467Z,1364.00
2018-12-02T09:34:43.419Z,1304.00
2018-12-02T09:35:43.378Z,1320.00
2018-12-02T09:36:43.333Z,1312.00
2018-12-02T09:37:43.315Z,1288.00
2018-12-02T09:38:43.258Z,1220.00
2018-12-02T09:39:43.214Z,1180.00
2018-12-02T09:40:43.173Z,1252.00
2018-12-02T09:41:43.151Z,1212.00
2018-12-02T09:42:43.079Z,1144.00
2018-12-02T09:43:43.066Z,1084.00
2018-12-02T09:44:43.004Z,1076.00
2018-12-02T09:45:42.955Z,1188.00
2018-12-02T09:46:42.925Z,1188.00
2018-12-02T09:47:42.996Z,1188.00
2018-12-02T09:48:42.858Z,1192.00
2018-12-02T09:49:42.898Z,1164.00
2018-12-02T09:50:42.860Z,1256.00
2018-12-02T09:51:42.785Z,1304.00
2018-12-02T09:52:42.672Z,1280.00
2018-12-02T09:53:42.627Z,1232.00
2018-12-02T09:54:42.600Z,1204.00
2018-12-02T09:55:42.561Z,1200.00
2018-12-02T09:56:42.495Z,1140.00
2018-12-02T09:57:42.446Z,1044.00
2018-12-02T09:58:42.444Z,1064.00
2018-12-02T09:59:42.373Z,1156.00
2018-12-02T10:00:42.343Z,1336.00
2018-12-02T10:01:42.317Z,1480.00
2018-12-02T10:02:42.249Z,1656.00
2018-12-02T10:03:42.200Z,1532.00
2018-12-02T10:04:42.166Z,1452.00
2018-12-02T10:05:42.124Z,1164.00
2018-12-02T10:06:42.073Z,1084.00
2018-12-02T10:07:42.052Z,1076.00
2018-12-02T10:08:41.988Z,1064.00
2018-12-02T10:09:41.947Z,1132.00
2018-12-02T10:10:41.915Z,1004.00
2018-12-02T10:11:41.896Z,916.00
2018-12-02T10:12:41.832Z,860.00
2018-12-02T10:13:41.786Z,888.00
2018-12-02T10:14:41.741Z,896.00
2018-12-02T10:15:41.696Z,912.00
2018-12-02T10:16:41.711Z,1000.00
2018-12-02T10:17:41.640Z,1148.00
2018-12-02T10:18:41.577Z,1396.00
2018-12-02T10:19:41.598Z,1604.00
2018-12-02T10:20:41.497Z,1708.00
2018-12-02T10:21:41.444Z,1736.00
2018-12-02T10:22:41.413Z,1872.00
2018-12-02T10:23:41.395Z,2052.00
2018-12-02T10:24:41.329Z,2020.00
2018-12-02T10:25:41.281Z,2136.00
2018-12-02T10:26:41.238Z,2120.00
2018-12-02T10:27:41.197Z,2264.00
2018-12-02T10:28:41.155Z,2156.00
2018-12-02T10:29:41.136Z,2244.00
2018-12-02T10:30:41.073Z,2268.00
2018-12-02T10:31:41.031Z,2604.00
2018-12-02T10:32:40.996Z,2648.00
2018-12-02T10:33:40.959Z,2708.00
2018-12-02T10:34:40.910Z,2960.00
2018-12-02T10:35:40.883Z,2912.00
2018-12-02T10:36:40.825Z,3052.00
2018-12-02T10:37:40.782Z,3076.00
2018-12-02T10:38:40.734Z,3276.00
2018-12-02T10:39:40.694Z,3092.00
2018-12-02T10:40:40.678Z,2888.00
2018-12-02T10:41:40.608Z,2704.00
2018-12-02T10:42:40.578Z,2744.00
2018-12-02T10:43:40.534Z,2324.00
2018-12-02T10:44:40.494Z,2252.00
2018-12-02T10:45:40.448Z,2336.00
2018-12-02T10:46:43.909Z,2328.00
2018-12-02T10:47:40.362Z,2216.00
2018-12-02T10:48:40.317Z,2368.00
2018-12-02T10:49:40.277Z,1904.00
2018-12-02T10:50:40.243Z,1524.00
2018-12-02T10:51:40.235Z,1364.00
2018-12-02T10:52:40.152Z,1388.00
2018-12-02T10:53:40.112Z,1564.00
2018-12-02T10:54:40.077Z,1888.00
2018-12-02T10:55:40.036Z,2236.00
2018-12-02T10:56:39.995Z,2052.00
2018-12-02T10:57:39.980Z,2320.00
2018-12-02T10:58:39.906Z,2340.00
2018-12-02T10:59:39.915Z,2552.00
2018-12-02T11:00:39.882Z,2360.00
2018-12-02T11:01:39.781Z,2508.00
2018-12-02T11:02:39.748Z,2524.00
2018-12-02T11:03:39.756Z,2544.00
2018-12-02T11:04:39.664Z,2888.00
2018-12-02T11:05:39.677Z,2824.00
2018-12-02T11:06:39.574Z,3324.00
2018-12-02T11:07:39.537Z,3316.00
2018-12-02T11:08:39.528Z,3232.00
2018-12-02T11:09:39.454Z,3812.00
2018-12-02T11:10:39.410Z,3824.00
2018-12-02T11:11:39.370Z,3952.00
2018-12-02T11:12:39.331Z,3952.00
2018-12-02T11:13:39.306Z,4572.00
2018-12-02T11:14:39.275Z,4460.00
2018-12-02T11:15:39.209Z,4252.00
2018-12-02T11:16:39.224Z,3600.00
2018-12-02T11:17:39.145Z,4032.00
2018-12-02T11:18:39.080Z,3948.00
2018-12-02T11:19:39.098Z,3628.00
2018-12-02T11:20:39.004Z,3992.00
2018-12-02T11:21:38.974Z,3808.00
2018-12-02T11:22:38.927Z,4036.00
2018-12-02T11:23:38.885Z,3908.00
2018-12-02T11:24:38.864Z,4240.00
2018-12-02T11:25:38.798Z,4100.00
2018-12-02T11:26:38.762Z,3828.00
2018-12-02T11:27:38.722Z,3868.00
2018-12-02T11:28:38.708Z,4324.00
2018-12-02T11:29:38.639Z,4364.00
2018-12-02T11:30:38.622Z,3436.00
2018-12-02T11:31:38.554Z,3716.00
2018-12-02T11:32:38.513Z,3176.00
2018-12-02T11:33:38.479Z,3004.00
2018-12-02T11:34:38.440Z,3004.00
2018-12-02T11:35:38.399Z,2732.00
2018-12-02T11:36:47.377Z,2520.00
2018-12-02T11:37:38.311Z,2876.00
2018-12-02T11:38:38.279Z,2808.00
2018-12-02T11:39:38.236Z,2320.00
2018-12-02T11:40:38.190Z,2320.00
2018-12-02T11:41:38.170Z,2476.00
2018-12-02T11:42:38.111Z,2560.00
2018-12-02T11:43:38.066Z,2720.00
2018-12-02T11:44:38.054Z,2976.00
2018-12-02T11:45:37.993Z,2356.00
2018-12-02T11:46:37.956Z,2816.00
2018-12-02T11:47:37.933Z,3260.00
2018-12-02T11:48:37.865Z,3060.00
2018-12-02T11:49:37.851Z,3424.00
2018-12-02T11:50:37.784Z,3780.00
2018-12-02T11:51:37.748Z,3536.00
2018-12-02T11:52:37.710Z,3136.00
2018-12-02T11:53:37.692Z,3108.00
2018-12-02T11:54:37.648Z,2628.00
2018-12-02T11:55:37.583Z,2880.00
2018-12-02T11:56:37.548Z,3908.00
2018-12-02T11:57:37.512Z,3428.00
2018-12-02T11:58:37.469Z,3812.00
2018-12-02T11:59:37.456Z,3672.00
2018-12-02T12:00:37.382Z,3060.00
2018-12-02T12:01:37.346Z,3680.00
2018-12-02T12:02:37.299Z,4548.00
2018-12-02T12:03:37.259Z,5588.00
2018-12-02T12:04:37.229Z,6848.00
2018-12-02T12:05:37.212Z,5292.00
2018-12-02T12:06:37.150Z,4336.00
2018-12-02T12:07:37.109Z,4644.00
2018-12-02T12:08:37.062Z,4408.00
2018-12-02T12:09:37.022Z,4804.00
2018-12-02T12:10:36.988Z,3980.00
2018-12-02T12:11:36.970Z,4044.00
2018-12-02T12:12:36.900Z,4228.00
2018-12-02T12:13:36.858Z,4632.00
2018-12-02T12:14:36.821Z,3584.00
2018-12-02T12:15:36.778Z,3468.00
2018-12-02T12:16:36.774Z,4096.00
2018-12-02T12:17:36.748Z,4480.00
2018-12-02T12:18:36.668Z,5656.00
2018-12-02T12:19:36.627Z,5080.00
2018-12-02T12:20:36.607Z,5532.00
2018-12-02T12:21:36.538Z,5284.00
2018-12-02T12:22:36.498Z,4224.00
2018-12-02T12:23:36.460Z,3588.00
2018-12-02T12:24:36.426Z,4080.00
2018-12-02T12:25:36.390Z,4968.00
2018-12-02T12:26:36.369Z,4812.00
2018-12-02T12:27:36.301Z,5556.00
2018-12-02T12:28:36.267Z,6576.00
2018-12-02T12:29:36.226Z,7204.00
2018-12-02T12:30:36.232Z,6656.00
2018-12-02T12:31:36.152Z,5324.00
2018-12-02T12:32:36.124Z,5708.00
2018-12-02T12:33:36.115Z,4020.00
2018-12-02T12:34:36.020Z,3892.00
2018-12-02T12:35:35.982Z,3460.00
2018-12-02T12:36:35.946Z,3648.00
2018-12-02T12:37:35.928Z,4336.00
2018-12-02T12:38:35.872Z,4004.00
2018-12-02T12:39:35.831Z,3732.00
2018-12-02T12:40:35.783Z,3740.00
2018-12-02T12:41:35.739Z,4468.00
2018-12-02T12:42:35.738Z,4700.00
2018-12-02T12:43:35.671Z,4268.00
2018-12-02T12:44:35.623Z,4532.00
2018-12-02T12:45:35.587Z,3184.00
2018-12-02T12:46:35.569Z,2812.00
2018-12-02T12:47:35.504Z,3140.00